Flugplatz Münster-Telgte

Für EDLT sind keine METAR/TAF Berichte vorhanden.
Es werden die Flugwettermeldungen vom Flugplatz Münster Osnabrück in 22 km Entfernung angezeigt.

Bericht für EDDG

vom 07.08. um 17:20 UTC

Wind 4 kt aus 110°

Sichtweite 10 km oder mehr

gute Sicht, keine Wolken < 5000 ft, keine CB, keine Wettererscheinungen (CAVOK)

Temperatur 32.0°C

Taupunkt 9.0°C

Luftfeuchtigkeit 24%

Luftdruck 1019 hPa

keine wesentliche Wetteränderung innerhalb den nächsten 2 Stunden zu erwarten

EDDG 071720Z 11004KT 040V170 CAVOK 32/09 Q1019 NOSIG

Prognose für EDDG

vom 07.08. um 17:00 UTC

Zwischen 18:00 UTC und 08:00 UTC

variable Windrichtung mit 3 kt

Sichtweite 10 km oder mehr

keine signifikanten Wettererscheinungen

keine Wolken


Am 08.08. zwischen 08:00 und 10:00 UTC übergehend zu

Wind 7 kt aus 10°

Sichtweite 10 km oder mehr

keine signifikanten Wettererscheinungen

keine Wolken

TAF EDDG 071700Z 0718/0818 VRB03KT CAVOK BECMG 0808/0810 01007KT
Impressum